createdAt,value
2023-03-05T00:01:09.078Z,0.50
2023-03-05T00:03:35.692Z,1.13
2023-03-05T00:06:02.235Z,0.70
2023-03-05T00:08:29.515Z,0.82
2023-03-05T00:10:57.641Z,1.00
2023-03-05T00:13:24.045Z,0.83
2023-03-05T00:15:50.429Z,1.02
2023-03-05T00:18:17.033Z,0.43
2023-03-05T00:20:43.389Z,0.90
2023-03-05T00:23:09.780Z,1.60
2023-03-05T00:25:36.730Z,0.70
2023-03-05T00:28:04.186Z,0.95
2023-03-05T00:30:32.275Z,1.00
2023-03-05T00:32:59.084Z,0.90
2023-03-05T00:35:25.544Z,1.38
2023-03-05T00:37:52.062Z,1.07
2023-03-05T00:40:19.039Z,1.40
2023-03-05T00:42:45.575Z,0.85
2023-03-05T00:45:12.188Z,1.20
2023-03-05T00:47:38.551Z,1.00
2023-03-05T00:50:06.570Z,1.70
2023-03-05T00:52:33.477Z,1.27
2023-03-05T00:54:59.810Z,1.15
2023-03-05T00:57:26.114Z,1.25
2023-03-05T00:59:52.406Z,1.50
2023-03-05T01:02:18.903Z,1.07
2023-03-05T01:04:47.142Z,1.42
2023-03-05T01:07:13.572Z,1.77
2023-03-05T01:09:40.289Z,1.00
2023-03-05T01:12:06.988Z,1.42
2023-03-05T01:14:34.575Z,1.40
2023-03-05T01:17:01.124Z,1.33
2023-03-05T01:19:27.503Z,1.17
2023-03-05T01:21:54.955Z,1.48
2023-03-05T01:24:22.071Z,1.25
2023-03-05T01:26:49.294Z,1.17
2023-03-05T01:29:15.679Z,1.25
2023-03-05T01:31:42.058Z,1.23
2023-03-05T01:34:08.622Z,1.30
2023-03-05T01:36:35.017Z,0.95
2023-03-05T01:39:02.376Z,0.87
2023-03-05T01:41:32.689Z,0.93
2023-03-05T01:43:59.395Z,1.15
2023-03-05T01:46:30.396Z,1.35
2023-03-05T01:49:10.838Z,1.25
2023-03-05T01:52:11.379Z,1.00
2023-03-05T01:54:44.717Z,1.00
2023-03-05T01:57:15.804Z,1.45
2023-03-05T01:59:45.331Z,0.95
2023-03-05T02:02:13.326Z,1.08
2023-03-05T02:04:46.556Z,1.20
2023-03-05T02:07:13.858Z,1.08
2023-03-05T02:09:41.207Z,0.63
2023-03-05T02:12:10.063Z,0.75
2023-03-05T02:14:39.714Z,0.73
2023-03-05T02:17:06.218Z,1.40
2023-03-05T02:19:54.498Z,1.38
2023-03-05T02:22:23.318Z,1.00
2023-03-05T02:24:50.511Z,1.25
2023-03-05T02:27:17.533Z,1.30
2023-03-05T02:29:46.206Z,1.40
2023-03-05T02:32:13.876Z,1.10
2023-03-05T02:34:40.441Z,1.60
2023-03-05T02:37:09.021Z,1.83
2023-03-05T02:39:35.412Z,1.10
2023-03-05T02:42:01.798Z,1.40
2023-03-05T02:44:28.145Z,1.40
2023-03-05T02:46:54.490Z,1.73
2023-03-05T02:49:21.031Z,1.75
2023-03-05T02:51:47.343Z,1.50
2023-03-05T02:54:13.707Z,1.00
2023-03-05T02:56:40.171Z,1.17
2023-03-05T02:59:07.593Z,1.45
2023-03-05T03:01:34.050Z,1.20
2023-03-05T03:04:00.538Z,1.23
2023-03-05T03:06:26.839Z,0.90
2023-03-05T03:08:53.146Z,1.30
2023-03-05T03:11:20.782Z,1.30
2023-03-05T03:13:47.392Z,1.50
2023-03-05T03:16:15.796Z,1.33
2023-03-05T03:18:42.235Z,1.30
2023-03-05T03:21:08.622Z,1.25
2023-03-05T03:23:35.240Z,1.38
2023-03-05T03:26:01.663Z,1.08
2023-03-05T03:28:28.122Z,1.10
2023-03-05T03:30:54.497Z,1.13
2023-03-05T03:33:20.918Z,1.40
2023-03-05T03:35:47.339Z,1.40
2023-03-05T03:38:13.885Z,1.42
2023-03-05T03:40:41.708Z,0.93
2023-03-05T03:43:08.181Z,0.90
2023-03-05T03:45:34.506Z,1.00
2023-03-05T03:48:00.921Z,1.25
2023-03-05T03:50:27.294Z,0.93
2023-03-05T03:52:53.688Z,1.80
2023-03-05T03:55:20.014Z,1.00
2023-03-05T03:57:46.396Z,1.17
2023-03-05T04:00:13.162Z,1.08
2023-03-05T04:02:39.969Z,0.70
2023-03-05T04:05:06.911Z,1.30
2023-03-05T04:07:33.242Z,1.00
2023-03-05T04:09:59.563Z,1.00
2023-03-05T04:12:25.914Z,1.15
2023-03-05T04:14:52.240Z,1.50
2023-03-05T04:17:18.678Z,1.35
2023-03-05T04:19:45.067Z,1.00
2023-03-05T04:22:15.925Z,1.40
2023-03-05T04:24:43.475Z,0.70
2023-03-05T04:27:10.213Z,1.05
2023-03-05T04:29:36.691Z,0.73
2023-03-05T04:32:03.408Z,0.63
2023-03-05T04:34:29.748Z,0.60
2023-03-05T04:36:56.065Z,0.50
2023-03-05T04:39:22.471Z,0.70
2023-03-05T04:41:48.817Z,0.90
2023-03-05T04:44:17.618Z,0.90
2023-03-05T04:46:44.191Z,0.52
2023-03-05T04:49:10.500Z,0.60
2023-03-05T04:51:36.802Z,0.73
2023-03-05T04:54:03.293Z,0.90
2023-03-05T04:56:29.606Z,0.60
2023-03-05T04:58:55.928Z,0.47
2023-03-05T05:01:22.358Z,0.80
2023-03-05T05:03:48.672Z,0.60
2023-03-05T05:06:14.997Z,0.70
2023-03-05T05:08:41.455Z,0.70
2023-03-05T05:11:08.387Z,0.50
2023-03-05T05:13:35.066Z,0.50
2023-03-05T05:16:01.694Z,0.68
2023-03-05T05:18:28.091Z,0.45
2023-03-05T05:20:55.569Z,0.30
2023-03-05T05:23:21.904Z,0.80
2023-03-05T05:25:59.518Z,0.30
2023-03-05T05:28:26.023Z,0.93
2023-03-05T05:30:52.734Z,0.60
2023-03-05T05:33:19.196Z,0.80
2023-03-05T05:35:45.588Z,0.30
2023-03-05T05:38:11.893Z,0.28
2023-03-05T05:40:38.240Z,0.43
2023-03-05T05:43:05.045Z,0.40
2023-03-05T05:45:31.588Z,0.60
2023-03-05T05:47:58.155Z,0.65
2023-03-05T05:50:24.563Z,0.50
2023-03-05T05:52:51.896Z,0.80
2023-03-05T05:55:18.232Z,0.90
2023-03-05T05:57:44.558Z,0.50
2023-03-05T06:00:13.526Z,0.60
2023-03-05T06:02:41.646Z,1.45
2023-03-05T06:05:10.799Z,0.47
2023-03-05T06:07:37.234Z,0.57
2023-03-05T06:10:04.449Z,0.60
2023-03-05T06:12:30.778Z,0.55
2023-03-05T06:14:57.434Z,0.52
2023-03-05T06:17:30.402Z,0.40
2023-03-05T06:19:58.210Z,0.63
2023-03-05T06:22:24.539Z,0.63
2023-03-05T06:24:50.936Z,0.95
2023-03-05T06:27:17.326Z,0.90
2023-03-05T06:29:43.639Z,0.73
2023-03-05T06:32:10.005Z,0.93
2023-03-05T06:34:36.403Z,0.73
2023-03-05T06:37:06.034Z,0.75
2023-03-05T06:39:35.000Z,0.60
2023-03-05T06:42:01.379Z,0.55
2023-03-05T06:44:27.754Z,0.60
2023-03-05T06:46:54.205Z,0.80
2023-03-05T06:49:20.667Z,0.40
2023-03-05T06:51:47.158Z,0.65
2023-03-05T06:54:15.499Z,0.57
2023-03-05T06:56:44.877Z,0.57
2023-03-05T06:59:13.175Z,0.50
2023-03-05T07:01:39.604Z,0.77
2023-03-05T07:04:06.780Z,0.43
2023-03-05T07:06:35.975Z,0.50
2023-03-05T07:09:03.339Z,0.60
2023-03-05T07:11:30.185Z,0.50
2023-03-05T07:13:56.509Z,0.40
2023-03-05T07:16:25.860Z,0.60
2023-03-05T07:18:52.498Z,0.35
2023-03-05T07:21:21.693Z,1.05
2023-03-05T07:23:52.308Z,0.63
2023-03-05T07:26:18.867Z,0.40
2023-03-05T07:28:45.225Z,0.38
2023-03-05T07:31:19.010Z,0.50
2023-03-05T07:33:50.520Z,0.50
2023-03-05T07:36:17.818Z,0.27
2023-03-05T07:38:44.273Z,0.43
2023-03-05T07:41:13.641Z,0.30
2023-03-05T07:43:40.473Z,0.50
2023-03-05T07:46:09.124Z,0.50
2023-03-05T07:48:36.048Z,0.50
2023-03-05T07:51:09.079Z,0.30
2023-03-05T07:53:35.720Z,0.50
2023-03-05T07:56:02.255Z,0.60
2023-03-05T07:58:28.631Z,0.40
2023-03-05T08:00:55.013Z,0.30
2023-03-05T08:03:21.392Z,0.47
2023-03-05T08:05:47.719Z,0.43
2023-03-05T08:08:14.090Z,0.60
2023-03-05T08:10:40.451Z,0.40
2023-03-05T08:13:06.865Z,0.20
2023-03-05T08:15:33.424Z,0.30
2023-03-05T08:18:00.245Z,0.35
2023-03-05T08:20:26.863Z,0.25
2023-03-05T08:22:53.205Z,0.20
2023-03-05T08:25:19.616Z,0.40
2023-03-05T08:27:46.891Z,0.40
2023-03-05T08:30:16.281Z,0.95
2023-03-05T08:32:43.722Z,0.50
2023-03-05T08:35:10.390Z,0.30
2023-03-05T08:37:37.017Z,0.50
2023-03-05T08:40:05.089Z,0.50
2023-03-05T08:42:31.476Z,0.60
2023-03-05T08:44:57.783Z,0.40
2023-03-05T08:47:26.533Z,0.75
2023-03-05T08:49:55.488Z,0.23
2023-03-05T08:52:22.688Z,0.73
2023-03-05T08:54:49.174Z,0.52
2023-03-05T08:57:15.573Z,0.60
2023-03-05T08:59:41.915Z,0.70
2023-03-05T09:02:10.886Z,0.57
2023-03-05T09:04:37.974Z,0.40
2023-03-05T09:07:04.808Z,0.85
2023-03-05T09:09:32.803Z,0.80
2023-03-05T09:12:00.582Z,0.90
2023-03-05T09:14:28.316Z,0.60
2023-03-05T09:16:55.711Z,0.68
2023-03-05T09:19:22.208Z,0.50
2023-03-05T09:21:48.641Z,0.77
2023-03-05T09:24:15.013Z,0.90
2023-03-05T09:26:42.188Z,0.50
2023-03-05T09:29:09.071Z,0.70
2023-03-05T09:31:36.520Z,0.90
2023-03-05T09:34:04.142Z,0.63
2023-03-05T09:36:31.492Z,0.55
2023-03-05T09:38:58.529Z,0.50
2023-03-05T09:41:30.187Z,0.50
2023-03-05T09:44:19.988Z,0.43
2023-03-05T09:46:55.536Z,0.90
2023-03-05T09:49:41.960Z,0.60
2023-03-05T09:52:51.556Z,0.50
2023-03-05T09:55:34.331Z,1.10
2023-03-05T09:58:10.294Z,0.30
2023-03-05T10:00:41.415Z,0.30
2023-03-05T10:03:30.129Z,0.35
2023-03-05T10:06:17.365Z,0.50
2023-03-05T10:08:54.489Z,0.40
2023-03-05T10:11:45.269Z,0.43
2023-03-05T10:14:18.702Z,0.50
2023-03-05T10:17:05.179Z,0.38
2023-03-05T10:19:49.669Z,0.50
2023-03-05T10:22:20.971Z,0.20
2023-03-05T10:25:32.199Z,0.40
2023-03-05T10:28:08.133Z,0.25
2023-03-05T10:30:46.602Z,0.43
2023-03-05T10:33:34.756Z,0.40
2023-03-05T10:36:11.153Z,0.30
2023-03-05T10:38:46.422Z,0.30
2023-03-05T10:41:41.178Z,0.40
2023-03-05T10:44:17.898Z,0.30
2023-03-05T10:46:45.887Z,0.40
2023-03-05T10:49:34.999Z,0.35
2023-03-05T10:52:09.663Z,0.30
2023-03-05T10:54:37.508Z,0.30
2023-03-05T10:57:25.327Z,0.30
2023-03-05T11:00:16.458Z,0.60
2023-03-05T11:02:58.619Z,0.30
2023-03-05T11:05:46.940Z,0.30
2023-03-05T11:08:34.089Z,0.30
2023-03-05T11:11:18.875Z,0.30
2023-03-05T11:13:48.195Z,0.50
2023-03-05T11:16:21.809Z,0.20
2023-03-05T11:18:48.826Z,0.43
2023-03-05T11:21:27.639Z,0.38
2023-03-05T11:24:13.856Z,0.40
2023-03-05T11:26:47.729Z,0.33
2023-03-05T11:29:29.944Z,0.30
2023-03-05T11:31:56.690Z,0.60
2023-03-05T11:34:31.230Z,0.35
2023-03-05T11:36:57.630Z,0.30
2023-03-05T11:39:30.296Z,0.30
2023-03-05T11:42:01.249Z,0.20
2023-03-05T11:44:45.593Z,0.40
2023-03-05T11:47:37.665Z,0.40
2023-03-05T11:50:15.959Z,0.30
2023-03-05T11:52:53.047Z,0.30
2023-03-05T11:55:23.711Z,0.20
2023-03-05T11:58:14.834Z,0.30
2023-03-05T12:00:44.791Z,0.32
2023-03-05T12:03:17.819Z,0.20
2023-03-05T12:05:49.318Z,0.20
2023-03-05T12:08:25.515Z,0.43
2023-03-05T12:10:52.450Z,0.20
2023-03-05T12:13:32.538Z,0.20
2023-03-05T12:16:12.418Z,0.20
2023-03-05T12:18:50.826Z,0.27
2023-03-05T12:21:28.893Z,0.30
2023-03-05T12:24:03.613Z,0.30
2023-03-05T12:27:04.283Z,0.40
2023-03-05T12:29:46.178Z,0.30
2023-03-05T12:32:25.445Z,0.40
2023-03-05T12:35:04.174Z,0.30
2023-03-05T12:37:31.046Z,0.20
2023-03-05T12:39:58.748Z,0.30
2023-03-05T12:42:28.053Z,0.25
2023-03-05T12:45:34.386Z,0.20
2023-03-05T12:48:00.803Z,0.30
2023-03-05T12:50:27.187Z,0.30
2023-03-05T12:53:00.194Z,0.25
2023-03-05T12:55:48.671Z,0.30
2023-03-05T12:58:33.813Z,0.20
2023-03-05T13:01:16.441Z,0.20
2023-03-05T13:03:53.213Z,0.38
2023-03-05T13:06:32.715Z,0.20
2023-03-05T13:09:23.184Z,0.30
2023-03-05T13:11:52.474Z,0.67
2023-03-05T13:14:37.085Z,0.22
2023-03-05T13:17:30.580Z,0.40
2023-03-05T13:19:58.201Z,0.52
2023-03-05T13:22:25.253Z,0.40
2023-03-05T13:25:24.061Z,0.37
2023-03-05T13:27:50.420Z,0.73
2023-03-05T13:30:27.319Z,0.20
2023-03-05T13:33:00.277Z,0.20
2023-03-05T13:35:26.711Z,0.30
2023-03-05T13:37:53.133Z,0.20
2023-03-05T13:40:27.413Z,0.30
2023-03-05T13:42:54.069Z,0.20
2023-03-05T13:45:24.860Z,0.50
2023-03-05T13:47:56.236Z,0.40
2023-03-05T13:50:35.225Z,0.30
2023-03-05T13:53:18.253Z,0.57
2023-03-05T13:55:46.263Z,0.40
2023-03-05T13:58:53.499Z,0.50
2023-03-05T14:01:28.066Z,0.43
2023-03-05T14:03:57.810Z,0.30
2023-03-05T14:06:28.191Z,0.40
2023-03-05T14:09:02.702Z,0.63
2023-03-05T14:11:29.654Z,0.60
2023-03-05T14:14:16.690Z,0.50
2023-03-05T14:16:43.257Z,0.60
2023-03-05T14:19:34.817Z,0.35
2023-03-05T14:22:01.935Z,0.85
2023-03-05T14:24:31.153Z,0.65
2023-03-05T14:27:00.889Z,0.40
2023-03-05T14:29:28.672Z,0.20
2023-03-05T14:31:59.079Z,0.30
2023-03-05T14:34:42.006Z,0.20
2023-03-05T14:37:21.994Z,0.38
2023-03-05T14:39:54.613Z,0.20
2023-03-05T14:42:50.403Z,0.30
2023-03-05T14:45:20.337Z,0.40
2023-03-05T14:47:47.604Z,0.30
2023-03-05T14:50:23.020Z,0.55
2023-03-05T14:52:53.046Z,0.50
2023-03-05T14:55:23.215Z,0.40
2023-03-05T14:57:51.517Z,0.95
2023-03-05T15:00:24.023Z,1.95
2023-03-05T15:02:50.822Z,1.17
2023-03-05T15:05:18.579Z,0.90
2023-03-05T15:07:45.390Z,1.30
2023-03-05T15:10:18.722Z,1.20
2023-03-05T15:12:45.915Z,1.05
2023-03-05T15:15:15.418Z,0.77
2023-03-05T15:17:44.097Z,1.55
2023-03-05T15:20:19.718Z,0.63
2023-03-05T15:22:46.285Z,0.55
2023-03-05T15:25:12.778Z,0.60
2023-03-05T15:27:39.314Z,0.60
2023-03-05T15:30:07.546Z,0.77
2023-03-05T15:32:34.108Z,0.77
2023-03-05T15:35:01.070Z,0.88
2023-03-05T15:37:31.170Z,0.68
2023-03-05T15:39:57.781Z,0.57
2023-03-05T15:42:24.132Z,0.57
2023-03-05T15:44:50.498Z,0.50
2023-03-05T15:47:16.823Z,0.50
2023-03-05T15:49:43.155Z,0.73
2023-03-05T15:52:09.580Z,0.60
2023-03-05T15:54:36.920Z,0.73
2023-03-05T15:57:09.869Z,0.60
2023-03-05T15:59:36.858Z,0.52
2023-03-05T16:02:03.631Z,0.60
2023-03-05T16:04:30.123Z,0.40
2023-03-05T16:07:02.836Z,1.00
2023-03-05T16:09:37.217Z,0.40
2023-03-05T16:12:08.694Z,0.38
2023-03-05T16:14:35.142Z,0.50
2023-03-05T16:17:03.429Z,0.60
2023-03-05T16:19:30.780Z,0.90
2023-03-05T16:21:57.105Z,0.37
2023-03-05T16:24:23.426Z,0.40
2023-03-05T16:26:49.745Z,0.57
2023-03-05T16:29:16.080Z,0.70
2023-03-05T16:31:43.256Z,0.40
2023-03-05T16:34:10.097Z,0.70
2023-03-05T16:36:36.439Z,0.82
2023-03-05T16:39:04.295Z,0.50
2023-03-05T16:41:30.793Z,0.60
2023-03-05T16:43:59.701Z,0.68
2023-03-05T16:46:28.838Z,0.60
2023-03-05T16:48:55.393Z,0.65
2023-03-05T16:51:22.669Z,0.50
2023-03-05T16:53:53.566Z,1.15
2023-03-05T16:56:20.672Z,0.80
2023-03-05T16:58:47.191Z,1.30
2023-03-05T17:01:17.140Z,1.90
2023-03-05T17:03:44.778Z,2.15
2023-03-05T17:06:16.694Z,0.80
2023-03-05T17:08:44.402Z,0.45
2023-03-05T17:11:12.525Z,0.70
2023-03-05T17:13:39.540Z,0.30
2023-03-05T17:16:07.645Z,0.45
2023-03-05T17:18:34.490Z,0.32
2023-03-05T17:21:02.410Z,0.40
2023-03-05T17:23:28.783Z,0.40
2023-03-05T17:25:55.560Z,0.40
2023-03-05T17:28:21.991Z,0.40
2023-03-05T17:30:48.414Z,0.40
2023-03-05T17:33:14.799Z,0.20
2023-03-05T17:35:46.971Z,0.30
2023-03-05T17:38:14.319Z,0.30
2023-03-05T17:40:40.758Z,0.40
2023-03-05T17:43:07.417Z,0.45
2023-03-05T17:45:35.283Z,0.30
2023-03-05T17:48:01.924Z,0.50
2023-03-05T17:50:28.537Z,0.38
2023-03-05T17:52:55.220Z,0.70
2023-03-05T17:55:23.966Z,0.40
2023-03-05T17:57:50.998Z,0.28
2023-03-05T18:00:23.006Z,0.40
2023-03-05T18:02:50.736Z,0.50
2023-03-05T18:05:18.976Z,0.35
2023-03-05T18:07:45.298Z,0.50
2023-03-05T18:10:13.173Z,0.38
2023-03-05T18:12:40.280Z,0.43
2023-03-05T18:15:10.235Z,0.55
2023-03-05T18:17:36.622Z,0.30
2023-03-05T18:20:04.365Z,0.47
2023-03-05T18:22:31.263Z,0.70
2023-03-05T18:24:58.047Z,0.50
2023-03-05T18:27:24.899Z,0.75
2023-03-05T18:29:53.943Z,0.40
2023-03-05T18:32:22.170Z,0.45
2023-03-05T18:34:50.576Z,0.40
2023-03-05T18:37:17.291Z,0.33
2023-03-05T18:39:43.632Z,0.43
2023-03-05T18:42:14.046Z,0.70
2023-03-05T18:44:41.121Z,0.55
2023-03-05T18:47:07.441Z,0.50
2023-03-05T18:49:33.942Z,1.27
2023-03-05T18:52:00.273Z,0.47
2023-03-05T18:54:26.635Z,0.57
2023-03-05T18:56:55.594Z,0.65
2023-03-05T18:59:22.105Z,0.40
2023-03-05T19:01:48.430Z,0.70
2023-03-05T19:04:14.880Z,0.50
2023-03-05T19:06:41.345Z,0.52
2023-03-05T19:09:17.018Z,0.60
2023-03-05T19:11:43.330Z,0.65
2023-03-05T19:14:09.643Z,1.37
2023-03-05T19:16:43.281Z,0.55
2023-03-05T19:19:25.303Z,0.73
2023-03-05T19:21:54.108Z,0.82
2023-03-05T19:24:22.651Z,0.70
2023-03-05T19:26:49.985Z,0.97
2023-03-05T19:29:16.422Z,0.70
2023-03-05T19:31:42.792Z,0.50
2023-03-05T19:34:09.150Z,0.80
2023-03-05T19:36:35.683Z,0.73
2023-03-05T19:39:06.426Z,0.70
2023-03-05T19:41:32.974Z,1.00
2023-03-05T19:43:59.476Z,0.63
2023-03-05T19:46:26.178Z,0.50
2023-03-05T19:48:52.640Z,0.65
2023-03-05T19:51:21.713Z,0.80
2023-03-05T19:53:48.318Z,0.50
2023-03-05T19:56:16.295Z,0.90
2023-03-05T19:58:46.241Z,0.77
2023-03-05T20:01:14.562Z,0.73
2023-03-05T20:03:42.907Z,0.60
2023-03-05T20:06:09.309Z,0.80
2023-03-05T20:08:35.649Z,1.20
2023-03-05T20:11:02.414Z,1.00
2023-03-05T20:13:29.309Z,0.70
2023-03-05T20:15:55.814Z,1.17
2023-03-05T20:18:22.519Z,0.80
2023-03-05T20:20:57.285Z,0.60
2023-03-05T20:23:24.463Z,0.90
2023-03-05T20:25:51.906Z,0.80
2023-03-05T20:28:27.015Z,0.70
2023-03-05T20:30:57.972Z,1.20
2023-03-05T20:33:25.590Z,1.02
2023-03-05T20:35:54.128Z,0.50
2023-03-05T20:38:22.271Z,0.90
2023-03-05T20:40:50.506Z,1.00
2023-03-05T20:43:17.556Z,0.80
2023-03-05T20:45:43.912Z,0.80
2023-03-05T20:48:10.280Z,0.80
2023-03-05T20:50:36.779Z,0.68
2023-03-05T20:53:04.031Z,0.90
2023-03-05T20:55:30.973Z,0.65
2023-03-05T20:57:57.457Z,0.88
2023-03-05T21:00:24.473Z,0.80
2023-03-05T21:02:51.695Z,0.65
2023-03-05T21:05:20.044Z,1.13
2023-03-05T21:07:46.631Z,0.70
2023-03-05T21:10:14.068Z,0.95
2023-03-05T21:12:40.502Z,0.80
2023-03-05T21:15:07.424Z,0.80
2023-03-05T21:17:33.811Z,0.70
2023-03-05T21:20:01.895Z,0.85
2023-03-05T21:22:28.340Z,0.75
2023-03-05T21:25:15.701Z,0.73
2023-03-05T21:27:43.044Z,0.90
2023-03-05T21:30:10.909Z,0.77
2023-03-05T21:32:37.570Z,0.90
2023-03-05T21:35:04.254Z,0.73
2023-03-05T21:37:30.569Z,0.70
2023-03-05T21:39:56.907Z,0.68
2023-03-05T21:42:23.275Z,0.97
2023-03-05T21:44:49.646Z,0.60
2023-03-05T21:47:16.026Z,0.68
2023-03-05T21:49:42.339Z,0.93
2023-03-05T21:52:14.023Z,1.05
2023-03-05T21:54:42.016Z,0.60
2023-03-05T21:57:11.291Z,0.90
2023-03-05T21:59:41.567Z,0.80
2023-03-05T22:02:16.410Z,0.90
2023-03-05T22:04:43.469Z,0.90
2023-03-05T22:07:09.859Z,0.87
2023-03-05T22:09:36.248Z,0.90
2023-03-05T22:12:04.595Z,0.93
2023-03-05T22:14:30.918Z,1.02
2023-03-05T22:17:02.043Z,0.82
2023-03-05T22:19:32.361Z,0.73
2023-03-05T22:21:59.154Z,1.10
2023-03-05T22:24:25.454Z,0.82
2023-03-05T22:26:51.844Z,0.95
2023-03-05T22:29:18.207Z,0.90
2023-03-05T22:31:44.901Z,1.00
2023-03-05T22:34:11.491Z,0.75
2023-03-05T22:36:37.798Z,1.00
2023-03-05T22:39:04.593Z,1.20
2023-03-05T22:41:31.083Z,1.00
2023-03-05T22:43:57.396Z,1.30
2023-03-05T22:46:25.979Z,0.88
2023-03-05T22:48:55.979Z,0.90
2023-03-05T22:51:22.560Z,0.93
2023-03-05T22:53:48.913Z,1.27
2023-03-05T22:56:19.001Z,0.80
2023-03-05T22:58:45.663Z,1.00
2023-03-05T23:01:24.451Z,0.95
2023-03-05T23:03:55.312Z,0.95
2023-03-05T23:06:21.671Z,0.85
2023-03-05T23:08:48.036Z,1.00
2023-03-05T23:11:14.422Z,1.25
2023-03-05T23:13:41.224Z,1.10
2023-03-05T23:16:09.330Z,1.13
2023-03-05T23:18:35.639Z,0.95
2023-03-05T23:21:01.981Z,1.00
2023-03-05T23:23:28.360Z,1.00
2023-03-05T23:25:54.662Z,1.33
2023-03-05T23:28:20.996Z,1.10
2023-03-05T23:30:47.380Z,1.00
2023-03-05T23:33:19.651Z,1.23
2023-03-05T23:35:55.925Z,1.13
2023-03-05T23:38:23.376Z,0.95
2023-03-05T23:40:53.772Z,1.55
2023-03-05T23:43:21.745Z,1.30
2023-03-05T23:45:49.474Z,1.50
2023-03-05T23:48:17.444Z,1.27
2023-03-05T23:50:47.384Z,1.25
2023-03-05T23:53:22.391Z,1.20
2023-03-05T23:55:49.346Z,1.50
2023-03-05T23:58:16.718Z,1.00
